Time;durP1;ratioP1;P1;durP2;ratioP2;P2;SDS_P1;SDS_P2;PMS_P1;PMS_P2;Temp;Humidity;BMP_temperature;BMP_pressure;BME280_temperature;BME280_humidity;BME280_pressure;Samples;Min_cycle;Max_cycle;Signal;HPM_P1;HPM_P2
2022/10/25 08:53:05;;;;;;;4.50;4.10;;;;;;;;;;5069224;28;20411;-60
2022/10/25 08:55:35;;;;;;;6.57;3.55;;;;;;;;;;5069514;28;20082;-64
2022/10/25 08:58:07;;;;;;;;;;;;;;;;;;5070312;28;20380;-64
2022/10/25 09:00:38;;;;;;;5.57;4.20;;;;;;;;;;5069740;28;19935;-62
2022/10/25 09:03:04;;;;;;;5.50;4.18;;;;;;;;;;5066511;28;20024;-61
2022/10/25 09:05:35;;;;;;;5.57;4.30;;;;;;;;;;5049043;28;20108;-61
2022/10/25 09:08:25;;;;;;;4.10;3.65;;;;;;;;;;5056898;28;20112;-65
2022/10/25 09:11:09;;;;;;;4.60;3.80;;;;;;;;;;5056930;28;20507;-63
2022/10/25 09:14:01;;;;;;;4.65;3.90;;;;;;;;;;5057705;28;20032;-64
2022/10/25 09:17:14;;;;;;;5.05;3.90;;;;;;;;;;5055615;28;20100;-65
2022/10/25 09:19:57;;;;;;;6.45;4.40;;;;;;;;;;5014702;28;20126;-66
2022/10/25 09:22:26;;;;;;;5.25;3.58;;;;;;;;;;5053997;28;20384;-62
2022/10/25 09:25:18;;;;;;;4.95;4.15;;;;;;;;;;5057469;28;20059;-62
2022/10/25 09:28:02;;;;;;;4.57;4.00;;;;;;;;;;5054280;28;20033;-63
2022/10/25 09:30:34;;;;;;;5.38;4.07;;;;;;;;;;5055657;28;20022;-63
2022/10/25 09:33:03;;;;;;;6.07;4.10;;;;;;;;;;5056658;28;20028;-62
2022/10/25 09:35:45;;;;;;;4.60;3.80;;;;;;;;;;5055085;28;20016;-66
2022/10/25 09:38:17;;;;;;;4.18;3.78;;;;;;;;;;5045131;28;20036;-62
2022/10/25 09:40:49;;;;;;;7.63;4.07;;;;;;;;;;5061533;28;20033;-63
2022/10/25 09:43:22;;;;;;;8.13;3.70;;;;;;;;;;5067296;28;20032;-67
2022/10/25 09:45:57;;;;;;;4.68;3.95;;;;;;;;;;5067020;28;20025;-67
2022/10/25 09:48:30;;;;;;;4.45;3.70;;;;;;;;;;5058099;28;20025;-66
2022/10/25 09:51:13;;;;;;;4.35;3.65;;;;;;;;;;5045215;28;20128;-65
2022/10/25 09:53:42;;;;;;;4.38;3.97;;;;;;;;;;5042987;28;20120;-63
2022/10/25 09:56:08;;;;;;;4.97;4.30;;;;;;;;;;5044933;28;20489;-66
2022/10/25 09:58:38;;;;;;;4.65;4.00;;;;;;;;;;5043940;28;20029;-62
2022/10/25 10:01:24;;;;;;;4.40;3.83;;;;;;;;;;5045619;28;20408;-62
2022/10/25 10:03:50;;;;;;;4.88;3.70;;;;;;;;;;5036096;28;20037;-66
2022/10/25 10:06:25;;;;;;;3.95;3.55;;;;;;;;;;5032365;28;20083;-65
2022/10/25 10:08:55;;;;;;;3.75;3.40;;;;;;;;;;5032119;28;20099;-61
2022/10/25 10:11:21;;;;;;;5.10;3.78;;;;;;;;;;5033494;28;20034;-62
2022/10/25 10:13:55;;;;;;;5.13;3.60;;;;;;;;;;5033376;28;20029;-62
2022/10/25 10:16:34;;;;;;;3.88;3.42;;;;;;;;;;5033507;28;20033;-62
2022/10/25 10:19:20;;;;;;;3.72;3.42;;;;;;;;;;5033315;28;20032;-67
2022/10/25 10:21:50;;;;;;;3.95;3.55;;;;;;;;;;5033548;28;20037;-65
2022/10/25 10:24:21;;;;;;;4.17;3.77;;;;;;;;;;5033205;28;20033;-68
2022/10/25 10:26:54;;;;;;;6.15;3.90;;;;;;;;;;5033510;28;20321;-63
2022/10/25 10:29:57;;;;;;;5.22;3.42;;;;;;;;;;5033544;28;20033;-63
2022/10/25 10:32:33;;;;;;;5.53;3.90;;;;;;;;;;5030824;28;20041;-64
2022/10/25 10:35:02;;;;;;;4.38;3.72;;;;;;;;;;5033563;28;20040;-66
2022/10/25 10:37:29;;;;;;;4.35;3.58;;;;;;;;;;5032842;28;20060;-63
2022/10/25 10:40:07;;;;;;;5.32;3.72;;;;;;;;;;5033405;28;20048;-68
2022/10/25 10:42:34;;;;;;;4.05;3.50;;;;;;;;;;5033067;28;20116;-63
2022/10/25 10:45:11;;;;;;;4.32;3.50;;;;;;;;;;5030561;28;20030;-62
2022/10/25 10:47:40;;;;;;;4.75;3.35;;;;;;;;;;5031454;28;20029;-64
2022/10/25 10:50:24;;;;;;;4.10;3.70;;;;;;;;;;5033084;28;20025;-62
2022/10/25 10:53:30;;;;;;;4.07;3.47;;;;;;;;;;5032529;28;20489;-65
2022/10/25 10:56:06;;;;;;;3.88;3.55;;;;;;;;;;5010081;28;20029;-62
2022/10/25 10:58:34;;;;;;;3.92;3.47;;;;;;;;;;5030063;28;20046;-69
2022/10/25 11:01:11;;;;;;;4.75;3.70;;;;;;;;;;5032113;28;20025;-64
2022/10/25 11:03:39;;;;;;;4.18;3.72;;;;;;;;;;5032452;28;20083;-62
2022/10/25 11:06:28;;;;;;;4.00;3.60;;;;;;;;;;5032360;28;20388;-68
2022/10/25 11:09:15;;;;;;;4.72;3.85;;;;;;;;;;5028642;28;20138;-64
2022/10/25 11:11:42;;;;;;;6.18;4.10;;;;;;;;;;5032463;28;20436;-67
2022/10/25 11:14:13;;;;;;;4.03;3.60;;;;;;;;;;5030424;28;20021;-65
2022/10/25 11:17:05;;;;;;;4.25;3.85;;;;;;;;;;5031915;28;20099;-64
2022/10/25 11:19:56;;;;;;;4.20;3.80;;;;;;;;;;5030807;28;20021;-62
2022/10/25 11:22:52;;;;;;;3.95;3.60;;;;;;;;;;5031077;28;20037;-62
2022/10/25 11:25:22;;;;;;;3.78;3.38;;;;;;;;;;5028289;28;20072;-61
2022/10/25 11:27:55;;;;;;;4.38;3.40;;;;;;;;;;5032297;28;20029;-61
2022/10/25 11:30:22;;;;;;;3.85;3.45;;;;;;;;;;5030878;28;20048;-64
2022/10/25 11:32:47;;;;;;;3.63;3.30;;;;;;;;;;5032455;28;20033;-66
2022/10/25 11:35:38;;;;;;;4.20;3.20;;;;;;;;;;5031877;28;20037;-74
2022/10/25 11:38:09;;;;;;;;;;;;;;;;;;5032077;28;20033;-62
2022/10/25 11:40:40;;;;;;;4.45;3.70;;;;;;;;;;5032190;28;20315;-66
2022/10/25 11:43:14;;;;;;;4.47;3.50;;;;;;;;;;5031894;28;20021;-66
2022/10/25 11:45:45;;;;;;;4.70;3.38;;;;;;;;;;5031748;28;20029;-62
2022/10/25 11:48:33;;;;;;;4.18;3.72;;;;;;;;;;5030380;28;20082;-65
2022/10/25 11:51:23;;;;;;;4.03;3.63;;;;;;;;;;5031572;28;20528;-60
2022/10/25 11:53:57;;;;;;;3.70;3.33;;;;;;;;;;5031420;28;20045;-63
2022/10/25 11:56:45;;;;;;;5.32;3.53;;;;;;;;;;5031555;28;20486;-62
2022/10/25 11:59:35;;;;;;;5.57;3.63;;;;;;;;;;5031472;28;20512;-68
2022/10/25 12:02:00;;;;;;;;;;;;;;;;;;5030520;28;20084;-62
2022/10/25 12:04:52;;;;;;;6.35;3.83;;;;;;;;;;5031243;28;20403;-68
2022/10/25 12:07:35;;;;;;;4.35;3.53;;;;;;;;;;5031380;28;20028;-65
2022/10/25 12:10:26;;;;;;;4.63;3.67;;;;;;;;;;5031172;28;20037;-63
2022/10/25 12:12:53;;;;;;;3.63;3.28;;;;;;;;;;5031400;28;20064;-62
2022/10/25 12:15:51;;;;;;;3.80;3.50;;;;;;;;;;5031325;28;20035;-65
2022/10/25 12:18:41;;;;;;;3.45;3.15;;;;;;;;;;5030594;28;20044;-61
2022/10/25 12:21:08;;;;;;;;;;;;;;;;;;5031739;28;20033;-63
2022/10/25 12:23:42;;;;;;;5.70;3.47;;;;;;;;;;5032532;28;19913;-64
2022/10/25 12:26:27;;;;;;;3.60;3.30;;;;;;;;;;5032077;28;20018;-69
2022/10/25 12:28:55;;;;;;;3.33;3.03;;;;;;;;;;5032794;28;20032;-62
2022/10/25 12:31:34;;;;;;;4.13;3.00;;;;;;;;;;5030444;28;20513;-62
2022/10/25 12:34:23;;;;;;;3.50;3.20;;;;;;;;;;5032280;28;20026;-61
2022/10/25 12:36:52;;;;;;;3.60;3.30;;;;;;;;;;5034195;28;20377;-63
2022/10/25 12:39:32;;;;;;;5.90;3.72;;;;;;;;;;5031616;28;20030;-63
2022/10/25 12:42:03;;;;;;;3.70;3.40;;;;;;;;;;5032263;28;20620;-62
2022/10/25 12:45:17;;;;;;;4.68;3.50;;;;;;;;;;5032295;28;20259;-61
2022/10/25 12:48:00;;;;;;;4.65;3.80;;;;;;;;;;5023469;28;20473;-60
2022/10/25 12:51:01;;;;;;;3.95;3.28;;;;;;;;;;5034634;28;20052;-61
2022/10/25 12:53:39;;;;;;;3.75;3.30;;;;;;;;;;5035039;28;20141;-61
2022/10/25 12:56:28;;;;;;;5.88;3.63;;;;;;;;;;5032794;28;20044;-61
2022/10/25 12:59:23;;;;;;;3.90;3.50;;;;;;;;;;5035299;28;20021;-61
2022/10/25 13:02:10;;;;;;;3.80;3.25;;;;;;;;;;5035108;28;20401;-66
2022/10/25 13:04:57;;;;;;;4.72;3.70;;;;;;;;;;5036682;28;20030;-66
2022/10/25 13:07:23;;;;;;;3.80;3.33;;;;;;;;;;5035030;28;20034;-62
2022/10/25 13:09:49;;;;;;;3.70;3.30;;;;;;;;;;5038932;28;20087;-62
2022/10/25 13:12:14;;;;;;;4.05;3.38;;;;;;;;;;5039502;28;20025;-61
2022/10/25 13:14:49;;;;;;;5.50;3.80;;;;;;;;;;5035844;28;20022;-62
2022/10/25 13:17:15;;;;;;;4.45;3.67;;;;;;;;;;5039960;28;20060;-62
2022/10/25 13:19:42;;;;;;;4.00;3.35;;;;;;;;;;5041331;28;20022;-62
2022/10/25 13:22:39;;;;;;;3.60;3.30;;;;;;;;;;5039280;28;20115;-63
2022/10/25 13:25:14;;;;;;;4.10;3.60;;;;;;;;;;5040884;28;20037;-65
2022/10/25 13:28:26;;;;;;;4.03;3.55;;;;;;;;;;5038872;28;20034;-70
2022/10/25 13:31:30;;;;;;;3.50;3.20;;;;;;;;;;4997241;28;20038;-60
2022/10/25 13:34:11;;;;;;;3.28;2.97;;;;;;;;;;4998422;28;20034;-60
2022/10/25 13:36:47;;;;;;;4.00;3.28;;;;;;;;;;5034399;28;20132;-61
2022/10/25 13:39:23;;;;;;;3.50;3.20;;;;;;;;;;5039977;28;20038;-60
2022/10/25 13:41:49;;;;;;;7.20;3.35;;;;;;;;;;5038786;28;20065;-61
2022/10/25 13:44:25;;;;;;;3.70;3.30;;;;;;;;;;5036539;28;20369;-61
2022/10/25 13:46:53;;;;;;;3.35;3.05;;;;;;;;;;5039387;28;20040;-68
2022/10/25 13:49:46;;;;;;;3.83;3.50;;;;;;;;;;5037938;28;20164;-67
2022/10/25 13:52:44;;;;;;;3.83;3.53;;;;;;;;;;5040188;28;20049;-64
2022/10/25 13:55:15;;;;;;;3.42;3.13;;;;;;;;;;5039024;28;20034;-65
2022/10/25 13:57:48;;;;;;;3.92;3.38;;;;;;;;;;5037406;28;20021;-60
2022/10/25 14:00:26;;;;;;;3.40;3.10;;;;;;;;;;5037902;28;20377;-60
2022/10/25 14:03:08;;;;;;;3.67;3.35;;;;;;;;;;5038399;28;20585;-60
2022/10/25 14:05:55;;;;;;;3.53;3.22;;;;;;;;;;5038552;28;20029;-60
2022/10/25 14:08:35;;;;;;;4.65;3.10;;;;;;;;;;5040173;28;20033;-60
2022/10/25 14:11:15;;;;;;;4.63;3.28;;;;;;;;;;5039209;28;20028;-64
2022/10/25 14:13:58;;;;;;;4.30;3.30;;;;;;;;;;5041684;28;20033;-60
2022/10/25 14:16:34;;;;;;;5.03;3.65;;;;;;;;;;5045225;28;20021;-59
2022/10/25 14:19:15;;;;;;;3.60;3.03;;;;;;;;;;5046385;28;20080;-61
2022/10/25 14:21:49;;;;;;;3.63;3.30;;;;;;;;;;5046676;28;20089;-63
2022/10/25 14:24:16;;;;;;;3.55;3.25;;;;;;;;;;5044538;28;20030;-61
2022/10/25 14:26:57;;;;;;;3.75;3.35;;;;;;;;;;5044997;28;20026;-64
2022/10/25 14:29:25;;;;;;;3.80;3.30;;;;;;;;;;5034857;28;20079;-59
2022/10/25 14:31:52;;;;;;;3.58;3.28;;;;;;;;;;5035040;28;20113;-61
2022/10/25 14:34:26;;;;;;;3.75;3.35;;;;;;;;;;5034673;28;20104;-63
2022/10/25 14:36:55;;;;;;;3.38;3.08;;;;;;;;;;5034809;28;20124;-60
2022/10/25 14:39:26;;;;;;;3.75;3.33;;;;;;;;;;5033513;28;20441;-60
2022/10/25 14:42:01;;;;;;;3.90;3.50;;;;;;;;;;5034249;28;20037;-62
2022/10/25 14:44:29;;;;;;;3.33;2.97;;;;;;;;;;5034826;28;20377;-61
2022/10/25 14:46:57;;;;;;;3.53;3.22;;;;;;;;;;5034272;28;20021;-60
2022/10/25 14:49:23;;;;;;;3.97;3.40;;;;;;;;;;5034207;28;20104;-62
2022/10/25 14:51:51;;;;;;;3.45;3.15;;;;;;;;;;5034226;28;20140;-60
2022/10/25 14:54:29;;;;;;;3.92;3.50;;;;;;;;;;5034274;28;20079;-62
2022/10/25 14:57:13;;;;;;;3.92;3.20;;;;;;;;;;5034090;28;20025;-60
2022/10/25 14:59:48;;;;;;;3.50;3.20;;;;;;;;;;5034552;28;20437;-63
2022/10/25 15:02:16;;;;;;;3.92;3.40;;;;;;;;;;5032887;28;20021;-60
2022/10/25 15:04:46;;;;;;;4.13;3.30;;;;;;;;;;5034336;28;20059;-61
2022/10/25 15:07:28;;;;;;;3.65;3.35;;;;;;;;;;5034052;28;20550;-60
2022/10/25 15:09:56;;;;;;;5.38;3.42;;;;;;;;;;5034228;28;20037;-67
2022/10/25 15:12:24;;;;;;;4.13;3.40;;;;;;;;;;5035321;28;20210;-60
2022/10/25 15:14:51;;;;;;;3.67;3.35;;;;;;;;;;5033982;28;20026;-61
2022/10/25 15:17:22;;;;;;;5.38;3.53;;;;;;;;;;5033731;28;20425;-62
2022/10/25 15:20:12;;;;;;;3.55;3.22;;;;;;;;;;5033876;28;20064;-61
2022/10/25 15:22:38;;;;;;;3.50;3.20;;;;;;;;;;5033926;28;20056;-69
2022/10/25 15:25:22;;;;;;;3.47;3.17;;;;;;;;;;5033748;28;20025;-69
2022/10/25 15:27:50;;;;;;;3.50;3.17;;;;;;;;;;5033750;28;20032;-69
2022/10/25 15:30:36;;;;;;;3.70;3.40;;;;;;;;;;5033929;28;20018;-65
2022/10/25 15:33:04;;;;;;;3.65;3.35;;;;;;;;;;5033744;28;20084;-61
2022/10/25 15:35:32;;;;;;;3.42;3.13;;;;;;;;;;5033429;28;20060;-63
2022/10/25 15:37:58;;;;;;;2.90;2.70;;;;;;;;;;5033764;28;20025;-60
2022/10/25 15:40:23;;;;;;;3.90;3.47;;;;;;;;;;5033430;28;20366;-60
2022/10/25 15:42:49;;;;;;;3.65;3.00;;;;;;;;;;5033365;28;20025;-60
2022/10/25 15:45:14;;;;;;;3.75;3.30;;;;;;;;;;5033616;28;20022;-70
2022/10/25 15:47:41;;;;;;;3.50;3.20;;;;;;;;;;5033408;28;20029;-60
2022/10/25 15:50:18;;;;;;;3.65;3.22;;;;;;;;;;5033524;28;20354;-60
2022/10/25 15:52:44;;;;;;;3.35;3.05;;;;;;;;;;5032928;28;20049;-60
2022/10/25 15:55:19;;;;;;;3.28;2.97;;;;;;;;;;5033425;28;20033;-60
2022/10/25 15:57:45;;;;;;;3.95;3.20;;;;;;;;;;5032849;28;20033;-59
2022/10/25 16:00:20;;;;;;;3.50;3.20;;;;;;;;;;5032792;28;20473;-67
2022/10/25 16:02:46;;;;;;;3.03;2.83;;;;;;;;;;5032808;28;20500;-61
2022/10/25 16:05:21;;;;;;;3.22;2.92;;;;;;;;;;5033231;28;20029;-60
2022/10/25 16:07:48;;;;;;;3.35;3.05;;;;;;;;;;5032779;28;20034;-61
2022/10/25 16:10:14;;;;;;;4.53;3.20;;;;;;;;;;5033138;28;20026;-63
2022/10/25 16:12:41;;;;;;;3.08;2.88;;;;;;;;;;5033174;28;20028;-60
2022/10/25 16:15:13;;;;;;;3.05;2.75;;;;;;;;;;5032997;28;20021;-60
2022/10/25 16:17:43;;;;;;;3.00;2.80;;;;;;;;;;5032627;28;20034;-61
2022/10/25 16:20:17;;;;;;;3.38;2.70;;;;;;;;;;5032814;28;20048;-63
2022/10/25 16:22:42;;;;;;;3.42;3.13;;;;;;;;;;5032554;28;20370;-63
2022/10/25 16:25:08;;;;;;;3.92;3.00;;;;;;;;;;5032692;28;20097;-60
2022/10/25 16:27:33;;;;;;;3.65;3.03;;;;;;;;;;5032401;28;20032;-60
2022/10/25 16:29:59;;;;;;;3.33;3.03;;;;;;;;;;5032515;28;20025;-59
2022/10/25 16:32:24;;;;;;;3.28;2.92;;;;;;;;;;5032529;28;20133;-59
2022/10/25 16:34:50;;;;;;;3.45;3.15;;;;;;;;;;5032386;28;20027;-60
2022/10/25 16:37:17;;;;;;;3.30;3.00;;;;;;;;;;5032523;28;20032;-60
2022/10/25 16:39:42;;;;;;;4.25;3.20;;;;;;;;;;5032661;28;20057;-60
2022/10/25 16:42:29;;;;;;;3.75;3.40;;;;;;;;;;5032171;28;20513;-61
2022/10/25 16:44:55;;;;;;;3.50;3.20;;;;;;;;;;5032685;28;20112;-59
2022/10/25 16:47:21;;;;;;;3.40;3.10;;;;;;;;;;5032119;28;20032;-66
2022/10/25 16:49:47;;;;;;;3.45;3.15;;;;;;;;;;5032463;28;20034;-61
2022/10/25 16:52:13;;;;;;;3.60;3.30;;;;;;;;;;5032203;28;20404;-60
2022/10/25 16:54:39;;;;;;;3.28;2.97;;;;;;;;;;5032547;28;20021;-69
2022/10/25 16:57:04;;;;;;;3.58;2.90;;;;;;;;;;5032331;28;20083;-70
2022/10/25 16:59:30;;;;;;;3.70;3.35;;;;;;;;;;5032481;28;20421;-61
2022/10/25 17:01:55;;;;;;;3.28;2.97;;;;;;;;;;5032155;28;20381;-63
2022/10/25 17:04:23;;;;;;;3.80;3.50;;;;;;;;;;5032093;28;20481;-61
2022/10/25 17:06:50;;;;;;;3.30;2.90;;;;;;;;;;5031945;28;20482;-60
2022/10/25 17:09:16;;;;;;;3.33;3.03;;;;;;;;;;5032459;28;20057;-60
2022/10/25 17:11:44;;;;;;;3.72;3.42;;;;;;;;;;5031957;28;20091;-60
2022/10/25 17:14:11;;;;;;;3.92;3.42;;;;;;;;;;5034897;28;20029;-60
2022/10/25 17:16:42;;;;;;;4.95;3.38;;;;;;;;;;5036010;28;20018;-60
2022/10/25 17:19:11;;;;;;;4.38;3.63;;;;;;;;;;5036198;28;20025;-59
2022/10/25 17:21:37;;;;;;;3.53;3.10;;;;;;;;;;5035927;28;20480;-60
2022/10/25 17:24:05;;;;;;;3.40;3.10;;;;;;;;;;5035926;28;20042;-60
2022/10/25 17:26:31;;;;;;;3.75;3.20;;;;;;;;;;5034437;28;20029;-59
2022/10/25 17:28:57;;;;;;;3.60;3.30;;;;;;;;;;5035902;28;20037;-60
2022/10/25 17:31:23;;;;;;;3.70;3.40;;;;;;;;;;5036067;28;20033;-61
2022/10/25 17:33:49;;;;;;;3.55;2.85;;;;;;;;;;5035754;28;20521;-59
2022/10/25 17:36:17;;;;;;;3.40;3.10;;;;;;;;;;5035606;28;20034;-60
2022/10/25 17:38:42;;;;;;;3.33;3.03;;;;;;;;;;5035905;28;20381;-60
2022/10/25 17:41:08;;;;;;;3.88;3.40;;;;;;;;;;5035816;28;20017;-59
2022/10/25 17:43:35;;;;;;;3.40;3.03;;;;;;;;;;5035602;28;20026;-59
2022/10/25 17:46:03;;;;;;;3.30;3.00;;;;;;;;;;5035537;28;20116;-60
2022/10/25 17:48:29;;;;;;;3.75;3.20;;;;;;;;;;5035804;28;20029;-60
2022/10/25 17:51:06;;;;;;;3.65;3.30;;;;;;;;;;5035488;28;20412;-60
2022/10/25 17:53:32;;;;;;;4.18;3.03;;;;;;;;;;5035327;28;20127;-60
2022/10/25 17:56:11;;;;;;;3.75;3.40;;;;;;;;;;5035551;28;20449;-60
2022/10/25 17:58:39;;;;;;;3.28;2.97;;;;;;;;;;5035406;28;20028;-59
2022/10/25 18:01:06;;;;;;;4.05;3.22;;;;;;;;;;5035076;28;20444;-59
2022/10/25 18:03:32;;;;;;;3.58;3.20;;;;;;;;;;5035111;28;20108;-59
2022/10/25 18:06:07;;;;;;;3.60;3.30;;;;;;;;;;5035090;28;20033;-59
2022/10/25 18:08:36;;;;;;;3.70;3.40;;;;;;;;;;5035348;28;20053;-60
2022/10/25 18:11:09;;;;;;;3.40;3.08;;;;;;;;;;5035236;28;20472;-67
2022/10/25 18:13:37;;;;;;;3.70;3.00;;;;;;;;;;5035064;28;20030;-69
2022/10/25 18:16:03;;;;;;;3.38;3.08;;;;;;;;;;5034884;28;20037;-66
2022/10/25 18:18:32;;;;;;;3.42;3.13;;;;;;;;;;5035240;28;20022;-61
2022/10/25 18:21:12;;;;;;;3.60;3.30;;;;;;;;;;5034929;28;20043;-60
2022/10/25 18:23:38;;;;;;;3.92;3.50;;;;;;;;;;5034376;28;20029;-66
2022/10/25 18:26:05;;;;;;;3.20;2.90;;;;;;;;;;5034688;28;20029;-60
2022/10/25 18:28:32;;;;;;;3.60;3.03;;;;;;;;;;5035065;28;20025;-61
2022/10/25 18:30:59;;;;;;;3.50;3.20;;;;;;;;;;5034640;28;20040;-60
2022/10/25 18:33:27;;;;;;;3.90;3.20;;;;;;;;;;5034758;28;20026;-60
2022/10/25 18:36:00;;;;;;;3.03;2.80;;;;;;;;;;5033382;28;20435;-61
2022/10/25 18:38:26;;;;;;;3.47;3.10;;;;;;;;;;5034845;28;20026;-60
2022/10/25 18:40:52;;;;;;;3.28;2.97;;;;;;;;;;5034890;28;20044;-60
2022/10/25 18:43:17;;;;;;;3.10;2.80;;;;;;;;;;5034705;28;20043;-60
2022/10/25 18:45:43;;;;;;;3.50;3.20;;;;;;;;;;5034775;28;20063;-59
2022/10/25 18:48:09;;;;;;;3.40;3.10;;;;;;;;;;5034304;28;20043;-59
2022/10/25 18:50:36;;;;;;;3.63;3.33;;;;;;;;;;5034131;28;20029;-60
2022/10/25 18:53:03;;;;;;;3.13;2.85;;;;;;;;;;5034642;28;20029;-59
2022/10/25 18:55:29;;;;;;;3.75;2.95;;;;;;;;;;5034305;28;20029;-59
2022/10/25 18:57:54;;;;;;;3.30;3.00;;;;;;;;;;5034344;28;20365;-60
2022/10/25 19:00:25;;;;;;;3.65;3.28;;;;;;;;;;5034287;28;20416;-60
2022/10/25 19:02:55;;;;;;;4.40;3.30;;;;;;;;;;5034411;28;20427;-59
2022/10/25 19:05:26;;;;;;;;;;;;;;;;;;5034867;28;20045;-60
2022/10/25 19:07:54;;;;;;;3.00;2.72;;;;;;;;;;5016113;28;19917;-59
2022/10/25 19:10:19;;;;;;;3.15;2.85;;;;;;;;;;5034021;28;20055;-59
2022/10/25 19:12:46;;;;;;;3.28;2.90;;;;;;;;;;5033887;28;20021;-59
2022/10/25 19:15:12;;;;;;;3.22;2.90;;;;;;;;;;5032767;28;20558;-60
2022/10/25 19:17:37;;;;;;;3.30;3.00;;;;;;;;;;5034314;28;20030;-59
2022/10/25 19:20:04;;;;;;;3.78;3.38;;;;;;;;;;5031878;28;20484;-59
2022/10/25 19:22:31;;;;;;;3.22;2.92;;;;;;;;;;5033626;28;20037;-60
2022/10/25 19:24:58;;;;;;;3.10;2.90;;;;;;;;;;5016166;28;20374;-59
2022/10/25 19:27:24;;;;;;;3.38;3.08;;;;;;;;;;5033771;28;20047;-62
2022/10/25 19:29:49;;;;;;;4.00;3.15;;;;;;;;;;5033729;28;20483;-59
2022/10/25 19:32:16;;;;;;;3.13;2.90;;;;;;;;;;5033619;28;20032;-59
2022/10/25 19:34:41;;;;;;;3.45;3.15;;;;;;;;;;5034004;28;20065;-59
2022/10/25 19:37:08;;;;;;;3.50;3.00;;;;;;;;;;5032490;28;20085;-60
2022/10/25 19:39:36;;;;;;;3.72;3.38;;;;;;;;;;5033498;28;20030;-59
2022/10/25 19:42:02;;;;;;;3.25;2.80;;;;;;;;;;5033389;28;20128;-59
2022/10/25 19:44:28;;;;;;;3.85;3.13;;;;;;;;;;5033355;28;20034;-59
2022/10/25 19:46:54;;;;;;;4.03;3.28;;;;;;;;;;5033394;28;20022;-60
2022/10/25 19:49:19;;;;;;;3.50;3.03;;;;;;;;;;5033026;28;20025;-59
2022/10/25 19:51:45;;;;;;;3.50;3.20;;;;;;;;;;5032917;28;20080;-63
2022/10/25 19:54:11;;;;;;;3.40;3.10;;;;;;;;;;5033121;28;20037;-64
2022/10/25 19:56:38;;;;;;;4.43;2.40;;;;;;;;;;5032850;28;20618;-63
2022/10/25 19:59:06;;;;;;;2.20;2.00;;;;;;;;;;5031802;28;20033;-62
2022/10/25 20:01:32;;;;;;;3.95;2.10;;;;;;;;;;5032966;28;20492;-62
2022/10/25 20:03:58;;;;;;;3.45;2.17;;;;;;;;;;5031579;28;20492;-62
2022/10/25 20:06:29;;;;;;;4.38;2.50;;;;;;;;;;5032852;28;20155;-62
2022/10/25 20:08:55;;;;;;;;;;;;;;;;;;5032169;28;20469;-63
2022/10/25 20:11:24;;;;;;;2.67;2.10;;;;;;;;;;5032877;28;19917;-63
2022/10/25 20:13:53;;;;;;;5.10;2.50;;;;;;;;;;5031452;28;20078;-62
2022/10/25 20:16:19;;;;;;;6.40;2.30;;;;;;;;;;5029791;28;20030;-62
2022/10/25 20:18:45;;;;;;;7.32;2.80;;;;;;;;;;5031020;28;20038;-62
2022/10/25 20:21:18;;;;;;;6.32;2.60;;;;;;;;;;5030984;28;20069;-61
2022/10/25 20:23:48;;;;;;;3.58;2.50;;;;;;;;;;5030711;28;20648;-62
2022/10/25 20:26:19;;;;;;;4.03;2.60;;;;;;;;;;5029672;28;20030;-65
2022/10/25 20:28:46;;;;;;;3.72;2.78;;;;;;;;;;5030836;28;20030;-63
2022/10/25 20:31:15;;;;;;;6.05;2.80;;;;;;;;;;5030970;28;20564;-65
2022/10/25 20:33:41;;;;;;;2.85;2.60;;;;;;;;;;5031230;28;20504;-64
2022/10/25 20:36:10;;;;;;;2.90;2.60;;;;;;;;;;5030849;28;20025;-63
2022/10/25 20:38:38;;;;;;;4.75;3.20;;;;;;;;;;5030945;28;20036;-64
2022/10/25 20:41:09;;;;;;;3.95;2.60;;;;;;;;;;5030803;28;20045;-64
2022/10/25 20:43:38;;;;;;;4.38;2.78;;;;;;;;;;5030928;28;20505;-64
2022/10/25 20:46:05;;;;;;;4.53;2.95;;;;;;;;;;5029599;28;20043;-67
2022/10/25 20:48:31;;;;;;;3.10;2.53;;;;;;;;;;5030557;28;20417;-63
2022/10/25 20:50:58;;;;;;;7.47;2.63;;;;;;;;;;5030891;28;20049;-66
2022/10/25 20:53:23;;;;;;;3.35;2.63;;;;;;;;;;5031092;28;20056;-67
2022/10/25 20:55:49;;;;;;;5.03;2.28;;;;;;;;;;5032358;28;20030;-63
2022/10/25 20:58:16;;;;;;;3.00;2.70;;;;;;;;;;5032078;28;20029;-68
2022/10/25 21:00:42;;;;;;;3.10;2.38;;;;;;;;;;5032313;28;20439;-65
2022/10/25 21:03:09;;;;;;;2.88;2.25;;;;;;;;;;5031071;28;20040;-63
2022/10/25 21:05:41;;;;;;;4.80;2.50;;;;;;;;;;5032102;28;20053;-63
2022/10/25 21:08:08;;;;;;;4.55;2.60;;;;;;;;;;5032023;28;20059;-70
2022/10/25 21:10:35;;;;;;;3.40;2.33;;;;;;;;;;5032253;28;20076;-71
2022/10/25 21:13:01;;;;;;;2.92;1.95;;;;;;;;;;5032237;28;20609;-68
2022/10/25 21:15:26;;;;;;;2.30;1.95;;;;;;;;;;5030872;28;20029;-69
2022/10/25 21:17:52;;;;;;;2.30;2.10;;;;;;;;;;5031909;28;20485;-70
2022/10/25 21:20:21;;;;;;;2.67;1.67;;;;;;;;;;5032187;28;20026;-68
2022/10/25 21:22:47;;;;;;;2.05;1.77;;;;;;;;;;5031947;28;20124;-71
2022/10/25 21:25:15;;;;;;;2.58;2.25;;;;;;;;;;5032312;28;20114;-66
2022/10/25 21:27:41;;;;;;;2.03;1.83;;;;;;;;;;5030182;28;20165;-70
2022/10/25 21:30:08;;;;;;;2.95;1.67;;;;;;;;;;5032022;28;20021;-68
2022/10/25 21:32:34;;;;;;;3.67;2.03;;;;;;;;;;5031794;28;20071;-64
2022/10/25 21:35:00;;;;;;;2.65;2.17;;;;;;;;;;5032570;28;20032;-70
2022/10/25 21:37:26;;;;;;;3.45;1.90;;;;;;;;;;5031664;28;20537;-65
2022/10/25 21:39:51;;;;;;;3.20;1.95;;;;;;;;;;5031829;28;20112;-71
2022/10/25 21:42:17;;;;;;;2.28;1.90;;;;;;;;;;5035481;28;20136;-61
2022/10/25 21:44:42;;;;;;;2.22;1.60;;;;;;;;;;5040793;28;20384;-64
2022/10/25 21:47:08;;;;;;;2.28;2.08;;;;;;;;;;5041941;28;20021;-62
2022/10/25 21:49:33;;;;;;;2.60;1.92;;;;;;;;;;5039918;28;20491;-67
2022/10/25 21:51:59;;;;;;;2.03;1.80;;;;;;;;;;5040364;28;20048;-61
2022/10/25 21:54:24;;;;;;;1.90;1.80;;;;;;;;;;5040222;28;20017;-61
2022/10/25 21:56:53;;;;;;;2.13;1.92;;;;;;;;;;5041242;28;20037;-61
2022/10/25 21:59:19;;;;;;;2.40;1.70;;;;;;;;;;5041300;28;20354;-60
2022/10/25 22:01:45;;;;;;;2.55;1.90;;;;;;;;;;5045549;28;20029;-61
2022/10/25 22:04:10;;;;;;;3.85;1.90;;;;;;;;;;5050560;28;20029;-61
2022/10/25 22:06:36;;;;;;;2.55;1.80;;;;;;;;;;5055120;28;20029;-62
2022/10/25 22:09:02;;;;;;;1.98;1.85;;;;;;;;;;5055094;28;20025;-65
2022/10/25 22:11:31;;;;;;;2.20;2.00;;;;;;;;;;5054990;28;20051;-69
2022/10/25 22:13:59;;;;;;;2.03;1.88;;;;;;;;;;5054845;28;20025;-69
2022/10/25 22:16:26;;;;;;;2.65;1.90;;;;;;;;;;5055025;28;20020;-64
2022/10/25 22:19:03;;;;;;;2.15;1.58;;;;;;;;;;5054783;28;20032;-70
2022/10/25 22:21:34;;;;;;;3.05;1.75;;;;;;;;;;5055158;28;20025;-65
2022/10/25 22:24:00;;;;;;;3.78;2.28;;;;;;;;;;5054759;28;20032;-63
2022/10/25 22:26:26;;;;;;;1.83;1.70;;;;;;;;;;5055046;28;20025;-66
2022/10/25 22:28:53;;;;;;;2.00;1.80;;;;;;;;;;5055040;28;20025;-71
2022/10/25 22:31:19;;;;;;;2.15;1.95;;;;;;;;;;5054659;28;20109;-64
2022/10/25 22:33:45;;;;;;;2.63;1.70;;;;;;;;;;5054939;28;20044;-69
2022/10/25 22:36:16;;;;;;;2.60;1.95;;;;;;;;;;5054963;28;20477;-72
2022/10/25 22:38:42;;;;;;;1.73;1.60;;;;;;;;;;5054664;28;20108;-72
2022/10/25 22:41:14;;;;;;;2.33;2.10;;;;;;;;;;5054538;28;20028;-63
2022/10/25 22:43:39;;;;;;;2.42;2.00;;;;;;;;;;5054478;28;20025;-61
2022/10/25 22:46:09;;;;;;;2.05;1.65;;;;;;;;;;5052540;28;20381;-61
2022/10/25 22:48:36;;;;;;;2.88;2.00;;;;;;;;;;5032694;28;20199;-61
2022/10/25 22:51:02;;;;;;;1.70;1.60;;;;;;;;;;5015382;28;20033;-61
2022/10/25 22:53:28;;;;;;;2.00;1.50;;;;;;;;;;5014960;28;20026;-68
2022/10/25 22:55:59;;;;;;;2.70;1.90;;;;;;;;;;5014564;28;20029;-71
2022/10/25 22:58:27;;;;;;;1.85;1.75;;;;;;;;;;5014614;28;20435;-69
2022/10/25 23:01:01;;;;;;;2.35;2.10;;;;;;;;;;5021515;28;20033;-64
2022/10/25 23:03:34;;;;;;;2.17;1.90;;;;;;;;;;5031947;28;20098;-70
2022/10/25 23:06:01;;;;;;;2.83;2.10;;;;;;;;;;5032047;28;20017;-61
2022/10/25 23:08:28;;;;;;;2.10;1.90;;;;;;;;;;5033350;28;20358;-62
2022/10/25 23:10:58;;;;;;;1.80;1.70;;;;;;;;;;5029201;28;20037;-61
2022/10/25 23:13:23;;;;;;;2.38;2.05;;;;;;;;;;5031537;28;20033;-61
2022/10/25 23:15:49;;;;;;;2.95;2.08;;;;;;;;;;5031603;28;20025;-68
2022/10/25 23:18:14;;;;;;;3.05;1.98;;;;;;;;;;5030013;28;20029;-61
2022/10/25 23:20:50;;;;;;;2.20;2.03;;;;;;;;;;5033156;28;20097;-72
2022/10/25 23:23:16;;;;;;;3.38;2.40;;;;;;;;;;5031074;28;20377;-70
2022/10/25 23:25:41;;;;;;;2.00;1.63;;;;;;;;;;5031183;28;20036;-61
2022/10/25 23:28:07;;;;;;;2.42;1.90;;;;;;;;;;5029821;28;20021;-65
2022/10/25 23:30:36;;;;;;;1.92;1.60;;;;;;;;;;5031281;28;20108;-64
2022/10/25 23:33:01;;;;;;;2.40;1.88;;;;;;;;;;5030036;28;20040;-70
2022/10/25 23:35:27;;;;;;;2.10;1.90;;;;;;;;;;5031189;28;20026;-72
2022/10/25 23:37:53;;;;;;;2.28;2.00;;;;;;;;;;5029577;28;20029;-64
2022/10/25 23:40:18;;;;;;;4.18;1.98;;;;;;;;;;5030987;28;20029;-61
2022/10/25 23:42:44;;;;;;;2.75;2.13;;;;;;;;;;5030432;28;20102;-63
2022/10/25 23:45:10;;;;;;;2.08;1.98;;;;;;;;;;5031955;28;20093;-63
2022/10/25 23:47:39;;;;;;;2.08;1.80;;;;;;;;;;5031827;28;20025;-64
2022/10/25 23:50:06;;;;;;;2.00;1.80;;;;;;;;;;5030394;28;20040;-68
2022/10/25 23:52:32;;;;;;;2.20;1.73;;;;;;;;;;5031715;28;20344;-61
2022/10/25 23:54:57;;;;;;;4.63;1.92;;;;;;;;;;5030790;28;20466;-71
2022/10/25 23:57:23;;;;;;;2.10;1.90;;;;;;;;;;5031935;28;20033;-68
2022/10/25 23:59:48;;;;;;;2.60;1.80;;;;;;;;;;5028920;28;20034;-61
